sensor_id;sensor_type;location;lat;lon;timestamp;P1;durP1;ratioP1;P2;durP2;ratioP2
71091;SDS011;58751;50.708;7.134;2023-02-24T00:00:40;23.00;;;13.67;;
71091;SDS011;58751;50.708;7.134;2023-02-24T00:03:06;22.87;;;13.17;;
71091;SDS011;58751;50.708;7.134;2023-02-24T00:05:33;18.83;;;12.02;;
71091;SDS011;58751;50.708;7.134;2023-02-24T00:07:58;22.10;;;12.52;;
71091;SDS011;58751;50.708;7.134;2023-02-24T00:10:23;25.70;;;14.13;;
71091;SDS011;58751;50.708;7.134;2023-02-24T00:12:48;27.80;;;12.93;;
71091;SDS011;58751;50.708;7.134;2023-02-24T00:15:14;27.77;;;12.87;;
71091;SDS011;58751;50.708;7.134;2023-02-24T00:17:39;22.00;;;12.03;;
71091;SDS011;58751;50.708;7.134;2023-02-24T00:20:06;18.23;;;12.10;;
71091;SDS011;58751;50.708;7.134;2023-02-24T00:22:32;22.77;;;13.57;;
71091;SDS011;58751;50.708;7.134;2023-02-24T00:24:57;24.40;;;13.03;;
71091;SDS011;58751;50.708;7.134;2023-02-24T00:27:22;23.77;;;14.27;;
71091;SDS011;58751;50.708;7.134;2023-02-24T00:29:47;22.87;;;12.70;;
71091;SDS011;58751;50.708;7.134;2023-02-24T00:32:12;21.60;;;12.70;;
71091;SDS011;58751;50.708;7.134;2023-02-24T00:34:38;25.13;;;12.70;;
71091;SDS011;58751;50.708;7.134;2023-02-24T00:37:04;27.87;;;12.67;;
71091;SDS011;58751;50.708;7.134;2023-02-24T00:39:30;23.73;;;13.50;;
71091;SDS011;58751;50.708;7.134;2023-02-24T00:41:55;23.90;;;14.40;;
71091;SDS011;58751;50.708;7.134;2023-02-24T00:44:20;19.67;;;12.50;;
71091;SDS011;58751;50.708;7.134;2023-02-24T00:46:45;19.67;;;11.80;;
71091;SDS011;58751;50.708;7.134;2023-02-24T00:49:12;20.13;;;11.57;;
71091;SDS011;58751;50.708;7.134;2023-02-24T00:51:39;25.83;;;12.63;;
71091;SDS011;58751;50.708;7.134;2023-02-24T00:54:06;24.17;;;14.48;;
71091;SDS011;58751;50.708;7.134;2023-02-24T00:56:31;22.17;;;12.80;;
71091;SDS011;58751;50.708;7.134;2023-02-24T00:58:58;21.33;;;11.90;;
71091;SDS011;58751;50.708;7.134;2023-02-24T01:01:24;25.85;;;11.50;;
71091;SDS011;58751;50.708;7.134;2023-02-24T01:03:49;20.90;;;11.95;;
71091;SDS011;58751;50.708;7.134;2023-02-24T01:06:16;18.90;;;11.37;;
71091;SDS011;58751;50.708;7.134;2023-02-24T01:08:41;22.37;;;11.80;;
71091;SDS011;58751;50.708;7.134;2023-02-24T01:11:14;20.23;;;12.77;;
71091;SDS011;58751;50.708;7.134;2023-02-24T01:13:40;22.65;;;13.20;;
71091;SDS011;58751;50.708;7.134;2023-02-24T01:16:05;20.47;;;12.10;;
71091;SDS011;58751;50.708;7.134;2023-02-24T01:18:30;20.27;;;11.80;;
71091;SDS011;58751;50.708;7.134;2023-02-24T01:20:56;21.20;;;13.07;;
71091;SDS011;58751;50.708;7.134;2023-02-24T01:23:21;24.73;;;12.67;;
71091;SDS011;58751;50.708;7.134;2023-02-24T01:25:47;22.47;;;13.37;;
71091;SDS011;58751;50.708;7.134;2023-02-24T01:28:13;23.80;;;13.97;;
71091;SDS011;58751;50.708;7.134;2023-02-24T01:30:39;26.17;;;14.52;;
71091;SDS011;58751;50.708;7.134;2023-02-24T01:33:04;22.43;;;13.17;;
71091;SDS011;58751;50.708;7.134;2023-02-24T01:35:29;22.57;;;14.00;;
71091;SDS011;58751;50.708;7.134;2023-02-24T01:37:54;25.47;;;13.93;;
71091;SDS011;58751;50.708;7.134;2023-02-24T01:40:19;27.77;;;15.17;;
71091;SDS011;58751;50.708;7.134;2023-02-24T01:42:45;35.53;;;19.27;;
71091;SDS011;58751;50.708;7.134;2023-02-24T01:45:13;38.63;;;18.80;;
71091;SDS011;58751;50.708;7.134;2023-02-24T01:47:38;34.75;;;19.48;;
71091;SDS011;58751;50.708;7.134;2023-02-24T01:50:04;32.43;;;19.27;;
71091;SDS011;58751;50.708;7.134;2023-02-24T01:52:30;89.10;;;52.90;;
71091;SDS011;58751;50.708;7.134;2023-02-24T01:54:59;40.20;;;22.33;;
71091;SDS011;58751;50.708;7.134;2023-02-24T01:57:26;39.88;;;23.00;;
71091;SDS011;58751;50.708;7.134;2023-02-24T01:59:52;41.13;;;25.38;;
71091;SDS011;58751;50.708;7.134;2023-02-24T02:02:20;47.55;;;26.10;;
71091;SDS011;58751;50.708;7.134;2023-02-24T02:04:47;42.58;;;24.10;;
71091;SDS011;58751;50.708;7.134;2023-02-24T02:07:15;50.38;;;27.45;;
71091;SDS011;58751;50.708;7.134;2023-02-24T02:09:40;46.17;;;25.70;;
71091;SDS011;58751;50.708;7.134;2023-02-24T02:12:06;43.20;;;25.40;;
71091;SDS011;58751;50.708;7.134;2023-02-24T02:14:31;40.33;;;21.43;;
71091;SDS011;58751;50.708;7.134;2023-02-24T02:17:11;39.57;;;18.17;;
71091;SDS011;58751;50.708;7.134;2023-02-24T02:20:00;36.40;;;19.52;;
71091;SDS011;58751;50.708;7.134;2023-02-24T02:22:36;31.42;;;16.60;;
71091;SDS011;58751;50.708;7.134;2023-02-24T02:25:07;31.52;;;16.63;;
71091;SDS011;58751;50.708;7.134;2023-02-24T02:27:41;32.20;;;17.50;;
71091;SDS011;58751;50.708;7.134;2023-02-24T02:30:17;28.45;;;16.38;;
71091;SDS011;58751;50.708;7.134;2023-02-24T02:32:48;24.65;;;15.65;;
71091;SDS011;58751;50.708;7.134;2023-02-24T02:35:18;24.25;;;14.07;;
71091;SDS011;58751;50.708;7.134;2023-02-24T02:37:46;21.33;;;10.95;;
71091;SDS011;58751;50.708;7.134;2023-02-24T02:40:14;16.98;;;9.43;;
71091;SDS011;58751;50.708;7.134;2023-02-24T02:42:43;21.88;;;11.98;;
71091;SDS011;58751;50.708;7.134;2023-02-24T02:45:11;14.15;;;9.93;;
71091;SDS011;58751;50.708;7.134;2023-02-24T02:47:38;15.88;;;9.00;;
71091;SDS011;58751;50.708;7.134;2023-02-24T02:50:07;21.42;;;10.43;;
71091;SDS011;58751;50.708;7.134;2023-02-24T02:52:37;18.85;;;10.02;;
71091;SDS011;58751;50.708;7.134;2023-02-24T02:55:04;16.13;;;10.43;;
71091;SDS011;58751;50.708;7.134;2023-02-24T02:57:31;18.15;;;10.60;;
71091;SDS011;58751;50.708;7.134;2023-02-24T02:59:57;19.70;;;11.50;;
71091;SDS011;58751;50.708;7.134;2023-02-24T03:02:24;19.38;;;11.20;;
71091;SDS011;58751;50.708;7.134;2023-02-24T03:04:51;17.63;;;9.43;;
71091;SDS011;58751;50.708;7.134;2023-02-24T03:07:18;18.98;;;10.75;;
71091;SDS011;58751;50.708;7.134;2023-02-24T03:09:46;24.75;;;12.00;;
71091;SDS011;58751;50.708;7.134;2023-02-24T03:12:14;18.02;;;11.20;;
71091;SDS011;58751;50.708;7.134;2023-02-24T03:14:43;25.48;;;12.15;;
71091;SDS011;58751;50.708;7.134;2023-02-24T03:17:10;22.70;;;11.00;;
71091;SDS011;58751;50.708;7.134;2023-02-24T03:19:36;20.65;;;11.23;;
71091;SDS011;58751;50.708;7.134;2023-02-24T03:22:03;21.98;;;11.40;;
71091;SDS011;58751;50.708;7.134;2023-02-24T03:24:31;20.67;;;11.32;;
71091;SDS011;58751;50.708;7.134;2023-02-24T03:26:59;24.70;;;12.60;;
71091;SDS011;58751;50.708;7.134;2023-02-24T03:29:28;37.90;;;15.23;;
71091;SDS011;58751;50.708;7.134;2023-02-24T03:31:57;26.38;;;15.75;;
71091;SDS011;58751;50.708;7.134;2023-02-24T03:34:25;30.42;;;15.00;;
71091;SDS011;58751;50.708;7.134;2023-02-24T03:36:53;25.80;;;14.80;;
71091;SDS011;58751;50.708;7.134;2023-02-24T03:39:18;34.97;;;16.87;;
71091;SDS011;58751;50.708;7.134;2023-02-24T03:41:45;36.00;;;18.60;;
71091;SDS011;58751;50.708;7.134;2023-02-24T03:44:13;38.50;;;18.38;;
71091;SDS011;58751;50.708;7.134;2023-02-24T03:46:38;36.67;;;17.88;;
71091;SDS011;58751;50.708;7.134;2023-02-24T03:49:06;27.27;;;16.87;;
71091;SDS011;58751;50.708;7.134;2023-02-24T03:51:32;32.70;;;17.42;;
71091;SDS011;58751;50.708;7.134;2023-02-24T03:54:01;36.23;;;17.10;;
71091;SDS011;58751;50.708;7.134;2023-02-24T03:56:28;26.02;;;14.27;;
71091;SDS011;58751;50.708;7.134;2023-02-24T03:59:00;29.63;;;14.70;;
71091;SDS011;58751;50.708;7.134;2023-02-24T04:01:33;31.15;;;13.20;;
71091;SDS011;58751;50.708;7.134;2023-02-24T04:04:03;30.13;;;14.75;;
71091;SDS011;58751;50.708;7.134;2023-02-24T04:06:31;29.30;;;13.77;;
71091;SDS011;58751;50.708;7.134;2023-02-24T04:08:59;29.92;;;13.98;;
71091;SDS011;58751;50.708;7.134;2023-02-24T04:11:27;32.28;;;15.70;;
71091;SDS011;58751;50.708;7.134;2023-02-24T04:13:56;25.67;;;15.05;;
71091;SDS011;58751;50.708;7.134;2023-02-24T04:16:23;32.63;;;16.50;;
71091;SDS011;58751;50.708;7.134;2023-02-24T04:18:52;27.65;;;15.00;;
71091;SDS011;58751;50.708;7.134;2023-02-24T04:21:19;25.08;;;15.60;;
71091;SDS011;58751;50.708;7.134;2023-02-24T04:23:45;33.60;;;15.67;;
71091;SDS011;58751;50.708;7.134;2023-02-24T04:26:11;27.27;;;14.40;;
71091;SDS011;58751;50.708;7.134;2023-02-24T04:28:37;29.38;;;14.45;;
71091;SDS011;58751;50.708;7.134;2023-02-24T04:31:04;35.20;;;16.92;;
71091;SDS011;58751;50.708;7.134;2023-02-24T04:33:31;25.83;;;15.07;;
71091;SDS011;58751;50.708;7.134;2023-02-24T04:35:58;30.67;;;15.47;;
71091;SDS011;58751;50.708;7.134;2023-02-24T04:38:23;36.65;;;18.92;;
71091;SDS011;58751;50.708;7.134;2023-02-24T04:40:48;39.03;;;17.93;;
71091;SDS011;58751;50.708;7.134;2023-02-24T04:43:13;48.27;;;20.67;;
71091;SDS011;58751;50.708;7.134;2023-02-24T04:45:39;44.40;;;20.47;;
71091;SDS011;58751;50.708;7.134;2023-02-24T04:48:04;41.50;;;20.40;;
71091;SDS011;58751;50.708;7.134;2023-02-24T04:50:30;47.03;;;21.60;;
71091;SDS011;58751;50.708;7.134;2023-02-24T04:52:57;37.88;;;21.08;;
71091;SDS011;58751;50.708;7.134;2023-02-24T04:55:24;42.72;;;22.00;;
71091;SDS011;58751;50.708;7.134;2023-02-24T04:57:50;48.30;;;22.55;;
71091;SDS011;58751;50.708;7.134;2023-02-24T05:00:16;40.42;;;23.13;;
71091;SDS011;58751;50.708;7.134;2023-02-24T05:02:41;44.37;;;21.47;;
71091;SDS011;58751;50.708;7.134;2023-02-24T05:05:07;50.40;;;22.07;;
71091;SDS011;58751;50.708;7.134;2023-02-24T05:07:32;35.47;;;20.90;;
71091;SDS011;58751;50.708;7.134;2023-02-24T05:09:58;43.43;;;21.93;;
71091;SDS011;58751;50.708;7.134;2023-02-24T05:12:24;47.72;;;23.48;;
71091;SDS011;58751;50.708;7.134;2023-02-24T05:14:49;49.70;;;21.57;;
71091;SDS011;58751;50.708;7.134;2023-02-24T05:17:14;38.13;;;21.20;;
71091;SDS011;58751;50.708;7.134;2023-02-24T05:19:39;44.57;;;21.53;;
71091;SDS011;58751;50.708;7.134;2023-02-24T05:22:04;42.63;;;22.90;;
71091;SDS011;58751;50.708;7.134;2023-02-24T05:24:30;43.00;;;20.27;;
71091;SDS011;58751;50.708;7.134;2023-02-24T05:26:57;35.07;;;21.80;;
71091;SDS011;58751;50.708;7.134;2023-02-24T05:29:22;49.22;;;21.35;;
71091;SDS011;58751;50.708;7.134;2023-02-24T05:31:47;45.30;;;21.87;;
71091;SDS011;58751;50.708;7.134;2023-02-24T05:34:12;49.10;;;22.73;;
71091;SDS011;58751;50.708;7.134;2023-02-24T05:36:38;45.03;;;21.70;;
71091;SDS011;58751;50.708;7.134;2023-02-24T05:39:03;53.00;;;20.03;;
71091;SDS011;58751;50.708;7.134;2023-02-24T05:41:29;44.10;;;22.10;;
71091;SDS011;58751;50.708;7.134;2023-02-24T05:43:55;50.70;;;22.70;;
71091;SDS011;58751;50.708;7.134;2023-02-24T05:46:21;46.58;;;20.42;;
71091;SDS011;58751;50.708;7.134;2023-02-24T05:48:48;47.67;;;22.03;;
71091;SDS011;58751;50.708;7.134;2023-02-24T05:51:14;46.75;;;24.85;;
71091;SDS011;58751;50.708;7.134;2023-02-24T05:53:39;41.00;;;23.37;;
71091;SDS011;58751;50.708;7.134;2023-02-24T05:56:04;36.97;;;22.37;;
71091;SDS011;58751;50.708;7.134;2023-02-24T05:58:29;43.90;;;24.83;;
71091;SDS011;58751;50.708;7.134;2023-02-24T06:00:56;45.20;;;21.47;;
71091;SDS011;58751;50.708;7.134;2023-02-24T06:03:21;37.58;;;22.05;;
71091;SDS011;58751;50.708;7.134;2023-02-24T06:05:51;43.20;;;23.00;;
71091;SDS011;58751;50.708;7.134;2023-02-24T06:08:16;43.80;;;25.65;;
71091;SDS011;58751;50.708;7.134;2023-02-24T06:10:41;45.13;;;21.83;;
71091;SDS011;58751;50.708;7.134;2023-02-24T06:13:06;36.73;;;22.07;;
71091;SDS011;58751;50.708;7.134;2023-02-24T06:15:32;44.77;;;22.57;;
71091;SDS011;58751;50.708;7.134;2023-02-24T06:17:59;33.40;;;19.80;;
71091;SDS011;58751;50.708;7.134;2023-02-24T06:20:24;42.70;;;18.83;;
71091;SDS011;58751;50.708;7.134;2023-02-24T06:22:49;40.57;;;20.83;;
71091;SDS011;58751;50.708;7.134;2023-02-24T06:25:14;37.00;;;18.20;;
71091;SDS011;58751;50.708;7.134;2023-02-24T06:27:40;45.03;;;18.47;;
71091;SDS011;58751;50.708;7.134;2023-02-24T06:30:05;45.30;;;17.20;;
71091;SDS011;58751;50.708;7.134;2023-02-24T06:32:31;30.73;;;15.77;;
71091;SDS011;58751;50.708;7.134;2023-02-24T06:34:57;37.40;;;17.47;;
71091;SDS011;58751;50.708;7.134;2023-02-24T06:37:22;34.53;;;17.10;;
71091;SDS011;58751;50.708;7.134;2023-02-24T06:39:48;29.87;;;14.80;;
71091;SDS011;58751;50.708;7.134;2023-02-24T06:42:13;31.07;;;16.87;;
71091;SDS011;58751;50.708;7.134;2023-02-24T06:44:39;33.30;;;16.43;;
71091;SDS011;58751;50.708;7.134;2023-02-24T06:47:05;32.05;;;14.45;;
71091;SDS011;58751;50.708;7.134;2023-02-24T06:49:31;31.95;;;12.88;;
71091;SDS011;58751;50.708;7.134;2023-02-24T06:51:58;28.80;;;14.20;;
71091;SDS011;58751;50.708;7.134;2023-02-24T06:54:23;67.35;;;24.45;;
71091;SDS011;58751;50.708;7.134;2023-02-24T06:56:49;20.03;;;10.40;;
71091;SDS011;58751;50.708;7.134;2023-02-24T06:59:14;28.13;;;9.20;;
71091;SDS011;58751;50.708;7.134;2023-02-24T07:01:39;16.53;;;7.93;;
71091;SDS011;58751;50.708;7.134;2023-02-24T07:04:04;17.73;;;8.13;;
71091;SDS011;58751;50.708;7.134;2023-02-24T07:06:30;17.67;;;7.63;;
71091;SDS011;58751;50.708;7.134;2023-02-24T07:08:57;19.00;;;6.85;;
71091;SDS011;58751;50.708;7.134;2023-02-24T07:11:23;22.45;;;8.50;;
71091;SDS011;58751;50.708;7.134;2023-02-24T07:13:48;9.87;;;5.47;;
71091;SDS011;58751;50.708;7.134;2023-02-24T07:16:14;11.83;;;6.20;;
71091;SDS011;58751;50.708;7.134;2023-02-24T07:18:40;9.93;;;5.50;;
71091;SDS011;58751;50.708;7.134;2023-02-24T07:21:05;13.40;;;5.43;;
71091;SDS011;58751;50.708;7.134;2023-02-24T07:23:31;11.03;;;4.90;;
71091;SDS011;58751;50.708;7.134;2023-02-24T07:25:57;19.07;;;5.93;;
71091;SDS011;58751;50.708;7.134;2023-02-24T07:28:22;14.10;;;4.80;;
71091;SDS011;58751;50.708;7.134;2023-02-24T07:30:48;14.80;;;4.60;;
71091;SDS011;58751;50.708;7.134;2023-02-24T07:33:13;8.83;;;3.23;;
71091;SDS011;58751;50.708;7.134;2023-02-24T07:35:38;13.73;;;4.47;;
71091;SDS011;58751;50.708;7.134;2023-02-24T07:38:03;15.53;;;4.00;;
71091;SDS011;58751;50.708;7.134;2023-02-24T07:40:28;19.80;;;4.40;;
71091;SDS011;58751;50.708;7.134;2023-02-24T07:42:55;17.83;;;4.67;;
71091;SDS011;58751;50.708;7.134;2023-02-24T07:45:20;9.95;;;4.40;;
71091;SDS011;58751;50.708;7.134;2023-02-24T07:47:45;17.07;;;4.23;;
71091;SDS011;58751;50.708;7.134;2023-02-24T07:50:11;10.57;;;4.10;;
71091;SDS011;58751;50.708;7.134;2023-02-24T07:52:36;12.10;;;5.70;;
71091;SDS011;58751;50.708;7.134;2023-02-24T07:55:01;22.33;;;5.50;;
71091;SDS011;58751;50.708;7.134;2023-02-24T07:57:26;15.80;;;5.73;;
71091;SDS011;58751;50.708;7.134;2023-02-24T07:59:53;23.33;;;7.37;;
71091;SDS011;58751;50.708;7.134;2023-02-24T08:02:18;11.07;;;4.18;;
71091;SDS011;58751;50.708;7.134;2023-02-24T08:04:44;12.37;;;6.40;;
71091;SDS011;58751;50.708;7.134;2023-02-24T08:07:09;14.70;;;7.30;;
71091;SDS011;58751;50.708;7.134;2023-02-24T08:09:34;13.13;;;6.40;;
71091;SDS011;58751;50.708;7.134;2023-02-24T08:11:59;16.27;;;6.73;;
71091;SDS011;58751;50.708;7.134;2023-02-24T08:14:26;11.43;;;5.80;;
71091;SDS011;58751;50.708;7.134;2023-02-24T08:16:53;13.10;;;4.80;;
71091;SDS011;58751;50.708;7.134;2023-02-24T08:19:19;15.98;;;5.50;;
71091;SDS011;58751;50.708;7.134;2023-02-24T08:21:44;21.83;;;7.43;;
71091;SDS011;58751;50.708;7.134;2023-02-24T08:24:12;11.90;;;5.00;;
71091;SDS011;58751;50.708;7.134;2023-02-24T08:26:37;14.25;;;4.30;;
71091;SDS011;58751;50.708;7.134;2023-02-24T08:29:03;15.10;;;4.87;;
71091;SDS011;58751;50.708;7.134;2023-02-24T08:31:28;6.93;;;3.43;;
71091;SDS011;58751;50.708;7.134;2023-02-24T08:33:54;11.00;;;3.70;;
71091;SDS011;58751;50.708;7.134;2023-02-24T08:36:19;8.73;;;3.67;;
71091;SDS011;58751;50.708;7.134;2023-02-24T08:38:45;11.67;;;4.50;;
71091;SDS011;58751;50.708;7.134;2023-02-24T08:41:11;7.73;;;3.33;;
71091;SDS011;58751;50.708;7.134;2023-02-24T08:43:37;11.35;;;2.80;;
71091;SDS011;58751;50.708;7.134;2023-02-24T08:46:04;16.77;;;4.47;;
71091;SDS011;58751;50.708;7.134;2023-02-24T08:48:31;8.77;;;3.20;;
71091;SDS011;58751;50.708;7.134;2023-02-24T08:50:58;9.15;;;3.55;;
71091;SDS011;58751;50.708;7.134;2023-02-24T08:53:25;7.82;;;3.13;;
71091;SDS011;58751;50.708;7.134;2023-02-24T08:55:50;10.73;;;3.33;;
71091;SDS011;58751;50.708;7.134;2023-02-24T08:58:15;12.17;;;3.50;;
71091;SDS011;58751;50.708;7.134;2023-02-24T09:00:41;15.20;;;2.57;;
71091;SDS011;58751;50.708;7.134;2023-02-24T09:03:07;12.47;;;3.90;;
71091;SDS011;58751;50.708;7.134;2023-02-24T09:05:32;6.88;;;2.90;;
71091;SDS011;58751;50.708;7.134;2023-02-24T09:07:59;14.47;;;3.53;;
71091;SDS011;58751;50.708;7.134;2023-02-24T09:10:24;7.85;;;2.90;;
71091;SDS011;58751;50.708;7.134;2023-02-24T09:12:49;8.30;;;2.80;;
71091;SDS011;58751;50.708;7.134;2023-02-24T09:15:14;8.03;;;3.40;;
71091;SDS011;58751;50.708;7.134;2023-02-24T09:17:40;11.83;;;3.13;;
71091;SDS011;58751;50.708;7.134;2023-02-24T09:20:07;9.93;;;3.40;;
71091;SDS011;58751;50.708;7.134;2023-02-24T09:22:32;10.52;;;3.08;;
71091;SDS011;58751;50.708;7.134;2023-02-24T09:25:00;8.50;;;2.93;;
71091;SDS011;58751;50.708;7.134;2023-02-24T09:27:25;10.85;;;2.63;;
71091;SDS011;58751;50.708;7.134;2023-02-24T09:29:50;11.93;;;4.07;;
71091;SDS011;58751;50.708;7.134;2023-02-24T09:32:15;15.83;;;3.00;;
71091;SDS011;58751;50.708;7.134;2023-02-24T09:34:41;9.70;;;2.77;;
71091;SDS011;58751;50.708;7.134;2023-02-24T09:37:06;9.93;;;3.77;;
71091;SDS011;58751;50.708;7.134;2023-02-24T09:39:32;9.90;;;3.37;;
71091;SDS011;58751;50.708;7.134;2023-02-24T09:42:00;22.30;;;3.50;;
71091;SDS011;58751;50.708;7.134;2023-02-24T09:44:27;5.10;;;3.15;;
71091;SDS011;58751;50.708;7.134;2023-02-24T09:46:56;8.07;;;3.30;;
71091;SDS011;58751;50.708;7.134;2023-02-24T09:49:25;12.50;;;3.20;;
71091;SDS011;58751;50.708;7.134;2023-02-24T09:51:51;8.88;;;3.70;;
71091;SDS011;58751;50.708;7.134;2023-02-24T09:54:17;9.07;;;3.13;;
71091;SDS011;58751;50.708;7.134;2023-02-24T09:56:46;12.38;;;2.88;;
71091;SDS011;58751;50.708;7.134;2023-02-24T09:59:18;8.60;;;3.80;;
71091;SDS011;58751;50.708;7.134;2023-02-24T10:01:45;14.75;;;3.30;;
71091;SDS011;58751;50.708;7.134;2023-02-24T10:04:14;5.95;;;3.15;;
71091;SDS011;58751;50.708;7.134;2023-02-24T10:06:43;12.52;;;4.28;;
71091;SDS011;58751;50.708;7.134;2023-02-24T10:09:11;12.40;;;3.67;;
71091;SDS011;58751;50.708;7.134;2023-02-24T10:11:38;8.00;;;3.72;;
71091;SDS011;58751;50.708;7.134;2023-02-24T10:14:04;7.38;;;3.20;;
71091;SDS011;58751;50.708;7.134;2023-02-24T10:16:32;16.27;;;3.53;;
71091;SDS011;58751;50.708;7.134;2023-02-24T10:19:02;14.45;;;3.90;;
71091;SDS011;58751;50.708;7.134;2023-02-24T10:21:31;11.13;;;3.60;;
71091;SDS011;58751;50.708;7.134;2023-02-24T10:24:01;10.80;;;4.20;;
71091;SDS011;58751;50.708;7.134;2023-02-24T10:26:29;13.27;;;4.32;;
71091;SDS011;58751;50.708;7.134;2023-02-24T10:28:58;15.30;;;4.03;;
71091;SDS011;58751;50.708;7.134;2023-02-24T10:31:26;13.85;;;4.75;;
71091;SDS011;58751;50.708;7.134;2023-02-24T10:33:54;12.10;;;5.50;;
71091;SDS011;58751;50.708;7.134;2023-02-24T10:36:21;12.85;;;3.95;;
71091;SDS011;58751;50.708;7.134;2023-02-24T10:38:46;8.17;;;4.60;;
71091;SDS011;58751;50.708;7.134;2023-02-24T10:41:12;10.30;;;5.53;;
71091;SDS011;58751;50.708;7.134;2023-02-24T10:43:37;8.97;;;5.43;;
71091;SDS011;58751;50.708;7.134;2023-02-24T10:46:03;9.53;;;5.03;;
71091;SDS011;58751;50.708;7.134;2023-02-24T10:48:28;12.07;;;4.73;;
71091;SDS011;58751;50.708;7.134;2023-02-24T10:50:55;5.90;;;4.43;;
71091;SDS011;58751;50.708;7.134;2023-02-24T10:53:21;5.70;;;3.85;;
71091;SDS011;58751;50.708;7.134;2023-02-24T10:55:48;4.47;;;3.67;;
71091;SDS011;58751;50.708;7.134;2023-02-24T10:58:14;5.10;;;4.10;;
71091;SDS011;58751;50.708;7.134;2023-02-24T11:00:40;12.80;;;4.73;;
71091;SDS011;58751;50.708;7.134;2023-02-24T11:03:06;7.00;;;3.60;;
71091;SDS011;58751;50.708;7.134;2023-02-24T11:05:35;5.18;;;3.35;;
71091;SDS011;58751;50.708;7.134;2023-02-24T11:08:10;12.15;;;3.55;;
71091;SDS011;58751;50.708;7.134;2023-02-24T11:10:37;4.00;;;3.50;;
71091;SDS011;58751;50.708;7.134;2023-02-24T11:13:04;7.53;;;3.60;;
71091;SDS011;58751;50.708;7.134;2023-02-24T11:15:30;9.10;;;3.97;;
71091;SDS011;58751;50.708;7.134;2023-02-24T11:17:56;6.30;;;3.63;;
71091;SDS011;58751;50.708;7.134;2023-02-24T11:20:24;11.37;;;4.70;;
71091;SDS011;58751;50.708;7.134;2023-02-24T11:22:51;6.35;;;4.10;;
71091;SDS011;58751;50.708;7.134;2023-02-24T11:25:18;5.10;;;3.37;;
71091;SDS011;58751;50.708;7.134;2023-02-24T11:27:45;12.07;;;3.95;;
71091;SDS011;58751;50.708;7.134;2023-02-24T11:30:21;7.50;;;3.87;;
71091;SDS011;58751;50.708;7.134;2023-02-24T11:32:54;8.63;;;4.80;;
71091;SDS011;58751;50.708;7.134;2023-02-24T11:35:23;8.65;;;4.25;;
71091;SDS011;58751;50.708;7.134;2023-02-24T11:37:52;5.82;;;3.80;;
71091;SDS011;58751;50.708;7.134;2023-02-24T11:40:23;7.55;;;4.40;;
71091;SDS011;58751;50.708;7.134;2023-02-24T11:42:50;10.25;;;4.22;;
71091;SDS011;58751;50.708;7.134;2023-02-24T11:45:19;6.82;;;3.90;;
71091;SDS011;58751;50.708;7.134;2023-02-24T11:47:50;6.40;;;4.22;;
71091;SDS011;58751;50.708;7.134;2023-02-24T11:50:21;13.18;;;7.75;;
71091;SDS011;58751;50.708;7.134;2023-02-24T11:52:47;5.35;;;3.47;;
71091;SDS011;58751;50.708;7.134;2023-02-24T11:55:14;8.93;;;3.88;;
71091;SDS011;58751;50.708;7.134;2023-02-24T11:57:45;4.68;;;3.90;;
71091;SDS011;58751;50.708;7.134;2023-02-24T12:00:13;8.73;;;4.28;;
71091;SDS011;58751;50.708;7.134;2023-02-24T12:02:41;11.13;;;4.00;;
71091;SDS011;58751;50.708;7.134;2023-02-24T12:05:09;4.40;;;3.65;;
71091;SDS011;58751;50.708;7.134;2023-02-24T12:07:37;7.30;;;4.07;;
71091;SDS011;58751;50.708;7.134;2023-02-24T12:10:04;6.60;;;3.90;;
71091;SDS011;58751;50.708;7.134;2023-02-24T12:12:33;8.10;;;4.05;;
71091;SDS011;58751;50.708;7.134;2023-02-24T12:15:04;6.32;;;4.32;;
71091;SDS011;58751;50.708;7.134;2023-02-24T12:17:36;7.05;;;3.60;;
71091;SDS011;58751;50.708;7.134;2023-02-24T12:20:03;4.60;;;3.80;;
71091;SDS011;58751;50.708;7.134;2023-02-24T12:22:30;8.43;;;3.88;;
71091;SDS011;58751;50.708;7.134;2023-02-24T12:24:57;8.10;;;3.72;;
71091;SDS011;58751;50.708;7.134;2023-02-24T12:27:25;5.10;;;3.90;;
71091;SDS011;58751;50.708;7.134;2023-02-24T12:29:56;5.05;;;3.70;;
71091;SDS011;58751;50.708;7.134;2023-02-24T12:32:28;5.00;;;4.22;;
71091;SDS011;58751;50.708;7.134;2023-02-24T12:34:56;6.47;;;3.45;;
71091;SDS011;58751;50.708;7.134;2023-02-24T12:37:33;4.95;;;3.38;;
71091;SDS011;58751;50.708;7.134;2023-02-24T12:40:04;4.63;;;3.67;;
71091;SDS011;58751;50.708;7.134;2023-02-24T12:42:34;9.20;;;3.95;;
71091;SDS011;58751;50.708;7.134;2023-02-24T12:45:07;6.65;;;3.50;;
71091;SDS011;58751;50.708;7.134;2023-02-24T12:47:36;8.90;;;3.33;;
71091;SDS011;58751;50.708;7.134;2023-02-24T12:50:16;6.85;;;3.90;;
71091;SDS011;58751;50.708;7.134;2023-02-24T12:52:46;5.50;;;3.80;;
71091;SDS011;58751;50.708;7.134;2023-02-24T12:55:16;6.00;;;3.75;;
71091;SDS011;58751;50.708;7.134;2023-02-24T12:57:45;5.15;;;3.90;;
71091;SDS011;58751;50.708;7.134;2023-02-24T13:00:13;5.28;;;3.38;;
71091;SDS011;58751;50.708;7.134;2023-02-24T13:02:46;4.22;;;3.67;;
71091;SDS011;58751;50.708;7.134;2023-02-24T13:05:18;9.20;;;2.80;;
71091;SDS011;58751;50.708;7.134;2023-02-24T13:07:49;9.70;;;3.17;;
71091;SDS011;58751;50.708;7.134;2023-02-24T13:10:19;5.88;;;3.30;;
71091;SDS011;58751;50.708;7.134;2023-02-24T13:12:49;6.05;;;3.42;;
71091;SDS011;58751;50.708;7.134;2023-02-24T13:15:18;8.07;;;4.30;;
71091;SDS011;58751;50.708;7.134;2023-02-24T13:17:46;7.72;;;4.30;;
71091;SDS011;58751;50.708;7.134;2023-02-24T13:20:12;8.20;;;3.88;;
71091;SDS011;58751;50.708;7.134;2023-02-24T13:22:39;4.70;;;3.40;;
71091;SDS011;58751;50.708;7.134;2023-02-24T13:25:16;5.82;;;3.83;;
71091;SDS011;58751;50.708;7.134;2023-02-24T13:27:42;4.20;;;3.83;;
71091;SDS011;58751;50.708;7.134;2023-02-24T13:30:22;6.00;;;3.80;;
71091;SDS011;58751;50.708;7.134;2023-02-24T13:32:58;7.82;;;4.50;;
71091;SDS011;58751;50.708;7.134;2023-02-24T13:35:28;7.25;;;3.97;;
71091;SDS011;58751;50.708;7.134;2023-02-24T13:37:53;6.85;;;3.40;;
71091;SDS011;58751;50.708;7.134;2023-02-24T13:40:20;10.80;;;4.17;;
71091;SDS011;58751;50.708;7.134;2023-02-24T13:42:55;3.97;;;3.30;;
71091;SDS011;58751;50.708;7.134;2023-02-24T13:45:20;5.50;;;3.75;;
71091;SDS011;58751;50.708;7.134;2023-02-24T13:50:53;7.45;;;4.32;;
71091;SDS011;58751;50.708;7.134;2023-02-24T13:53:33;5.10;;;4.60;;
71091;SDS011;58751;50.708;7.134;2023-02-24T13:56:09;8.63;;;4.30;;
71091;SDS011;58751;50.708;7.134;2023-02-24T13:58:42;5.45;;;4.03;;
71091;SDS011;58751;50.708;7.134;2023-02-24T14:01:11;4.95;;;4.45;;
71091;SDS011;58751;50.708;7.134;2023-02-24T14:03:37;6.15;;;4.60;;
71091;SDS011;58751;50.708;7.134;2023-02-24T14:06:05;9.50;;;4.15;;
71091;SDS011;58751;50.708;7.134;2023-02-24T14:08:34;5.70;;;3.78;;
71091;SDS011;58751;50.708;7.134;2023-02-24T14:11:00;5.85;;;4.03;;
71091;SDS011;58751;50.708;7.134;2023-02-24T14:13:26;5.70;;;4.07;;
71091;SDS011;58751;50.708;7.134;2023-02-24T14:15:53;8.05;;;4.05;;
71091;SDS011;58751;50.708;7.134;2023-02-24T14:18:19;4.33;;;3.80;;
71091;SDS011;58751;50.708;7.134;2023-02-24T14:20:45;6.15;;;3.88;;
71091;SDS011;58751;50.708;7.134;2023-02-24T14:23:19;8.80;;;4.13;;
71091;SDS011;58751;50.708;7.134;2023-02-24T14:25:44;6.05;;;3.60;;
71091;SDS011;58751;50.708;7.134;2023-02-24T14:28:12;3.80;;;3.50;;
71091;SDS011;58751;50.708;7.134;2023-02-24T14:30:42;7.22;;;3.60;;
71091;SDS011;58751;50.708;7.134;2023-02-24T14:33:17;6.80;;;4.15;;
71091;SDS011;58751;50.708;7.134;2023-02-24T14:35:46;6.68;;;3.75;;